Time;durP1;ratioP1;P1;durP2;ratioP2;P2;SDS_P1;SDS_P2;PMS_P1;PMS_P2;Temp;Humidity;BMP_temperature;BMP_pressure;BME280_temperature;BME280_humidity;BME280_pressure;Samples;Min_cycle;Max_cycle;Signal;HPM_P1;HPM_P2
2023/07/09 00:01:44;;;;;;;10.98;7.60;;;19.20;99.90;;;;;;5076007;28;20530;-75
2023/07/09 00:04:11;;;;;;;9.60;7.82;;;19.00;99.90;;;;;;5075979;28;20201;-74
2023/07/09 00:06:38;;;;;;;11.68;10.45;;;19.20;99.90;;;;;;5075646;28;20227;-75
2023/07/09 00:09:07;;;;;;;11.82;9.05;;;19.20;99.90;;;;;;5075695;28;20231;-75
2023/07/09 00:11:34;;;;;;;10.43;7.43;;;19.20;99.90;;;;;;5075639;28;20201;-75
2023/07/09 00:14:00;;;;;;;9.07;7.18;;;19.30;99.90;;;;;;5075868;28;20205;-75
2023/07/09 00:16:27;;;;;;;9.20;7.30;;;19.30;99.90;;;;;;5075705;28;20247;-75
2023/07/09 00:18:54;;;;;;;8.18;7.22;;;19.20;99.90;;;;;;5075735;28;20254;-75
2023/07/09 00:21:22;;;;;;;8.05;6.60;;;19.20;99.90;;;;;;5075660;28;20270;-75
2023/07/09 00:23:49;;;;;;;9.50;6.47;;;19.20;99.90;;;;;;5075410;28;20225;-75
2023/07/09 00:26:23;;;;;;;9.75;7.32;;;19.20;99.90;;;;;;5075377;28;20566;-75
2023/07/09 00:28:49;;;;;;;9.95;6.70;;;19.20;99.90;;;;;;5075703;28;20193;-75
2023/07/09 00:31:17;;;;;;;8.63;7.70;;;19.20;99.90;;;;;;5075457;28;20201;-75
2023/07/09 00:33:45;;;;;;;10.88;7.38;;;19.00;99.90;;;;;;5075509;28;20197;-75
2023/07/09 00:36:15;;;;;;;11.30;8.55;;;19.00;99.90;;;;;;5075436;28;20224;-75
2023/07/09 00:38:47;;;;;;;9.85;8.15;;;19.00;99.90;;;;;;5075416;28;20201;-75
2023/07/09 00:41:18;;;;;;;11.18;7.93;;;19.00;99.90;;;;;;5075571;28;20201;-75
2023/07/09 00:43:46;;;;;;;12.27;9.13;;;18.90;99.90;;;;;;5075016;28;20682;-75
2023/07/09 00:46:33;;;;;;;10.95;7.82;;;18.90;99.90;;;;;;5075582;28;20201;-75
2023/07/09 00:49:04;;;;;;;10.35;7.80;;;18.90;99.90;;;;;;5074831;28;20193;-75
2023/07/09 00:51:34;;;;;;;12.98;7.63;;;18.90;99.90;;;;;;5075126;28;20201;-75
2023/07/09 00:54:14;;;;;;;8.82;6.90;;;18.80;99.90;;;;;;5074385;28;20197;-75
2023/07/09 00:56:46;;;;;;;10.45;7.70;;;18.90;99.90;;;;;;5074849;28;20239;-75
2023/07/09 00:59:18;;;;;;;9.23;7.50;;;18.80;99.90;;;;;;5074940;28;20251;-75
2023/07/09 01:01:47;;;;;;;13.07;8.70;;;18.80;99.90;;;;;;5074824;28;20299;-75
2023/07/09 01:04:16;;;;;;;9.15;8.15;;;18.70;99.90;;;;;;5074743;28;20302;-75
2023/07/09 01:06:51;;;;;;;9.57;7.65;;;18.70;99.90;;;;;;5074634;28;20232;-74
2023/07/09 01:09:18;;;;;;;14.45;9.93;;;18.60;99.90;;;;;;5074720;28;20199;-73
2023/07/09 01:11:46;;;;;;;11.93;10.00;;;18.60;99.90;;;;;;5074512;28;20193;-74
2023/07/09 01:14:17;;;;;;;14.65;9.23;;;18.60;99.90;;;;;;5074330;28;20202;-74
2023/07/09 01:16:47;;;;;;;11.50;9.27;;;18.70;99.90;;;;;;5074779;28;20197;-74
2023/07/09 01:19:16;;;;;;;18.98;16.98;;;18.70;99.90;;;;;;5074728;28;20778;-74
2023/07/09 01:21:44;;;;;;;12.13;10.10;;;18.50;99.90;;;;;;5074472;28;20201;-74
2023/07/09 01:24:15;;;;;;;15.02;11.57;;;18.60;99.90;;;;;;5074383;28;20642;-76
2023/07/09 01:26:43;;;;;;;18.00;11.15;;;18.60;99.90;;;;;;5074337;28;20736;-74
2023/07/09 01:29:10;;;;;;;11.35;10.15;;;18.50;99.90;;;;;;5074446;28;20306;-74
2023/07/09 01:31:37;;;;;;;12.32;10.32;;;18.50;99.90;;;;;;5074346;28;20205;-74
2023/07/09 01:34:05;;;;;;;12.35;8.98;;;18.50;99.90;;;;;;5074294;28;20208;-74
2023/07/09 01:36:32;;;;;;;11.90;10.65;;;18.50;99.90;;;;;;5074140;28;20211;-74
2023/07/09 01:39:01;;;;;;;11.88;9.63;;;18.50;99.90;;;;;;5074014;28;20238;-75
2023/07/09 01:41:27;;;;;;;13.90;9.80;;;18.40;99.90;;;;;;5074090;28;20275;-74
2023/07/09 01:43:54;;;;;;;12.98;9.63;;;18.30;99.90;;;;;;5073816;28;20615;-75
2023/07/09 01:46:21;;;;;;;13.90;10.13;;;18.20;99.90;;;;;;5073828;28;20193;-74
2023/07/09 01:48:49;;;;;;;11.15;9.50;;;18.30;99.90;;;;;;5073827;28;20201;-74
2023/07/09 01:51:17;;;;;;;11.25;10.05;;;18.30;99.90;;;;;;5073951;28;20212;-74
2023/07/09 01:53:45;;;;;;;13.55;10.13;;;18.20;99.90;;;;;;5073781;28;20205;-74
2023/07/09 01:56:13;;;;;;;12.60;9.82;;;18.20;99.90;;;;;;5073517;28;20719;-74
2023/07/09 01:58:41;;;;;;;14.90;10.40;;;18.10;99.90;;;;;;5073779;28;20247;-73
2023/07/09 02:01:08;;;;;;;12.73;10.23;;;18.10;99.90;;;;;;5073695;28;20212;-74
2023/07/09 02:03:35;;;;;;;14.73;9.93;;;18.10;99.90;;;;;;5073534;28;20562;-74
2023/07/09 02:06:08;;;;;;;12.98;9.93;;;18.10;99.90;;;;;;5072378;28;20252;-74
2023/07/09 02:08:35;;;;;;;10.60;9.10;;;18.10;99.90;;;;;;5073757;28;20207;-74
2023/07/09 02:11:02;;;;;;;11.45;9.90;;;18.10;99.90;;;;;;5073592;28;20197;-75
2023/07/09 02:13:30;;;;;;;12.85;9.77;;;18.10;99.90;;;;;;5073540;28;20274;-74
2023/07/09 02:15:56;;;;;;;12.98;10.35;;;18.10;99.90;;;;;;5073490;28;20538;-75
2023/07/09 02:18:23;;;;;;;13.43;11.27;;;18.00;99.90;;;;;;5073307;28;20204;-75
2023/07/09 02:20:49;;;;;;;12.20;10.52;;;18.00;99.90;;;;;;5073268;28;20197;-74
2023/07/09 02:23:16;;;;;;;16.17;11.85;;;18.00;99.90;;;;;;5073389;28;20221;-74
2023/07/09 02:25:43;;;;;;;18.17;14.13;;;17.90;99.90;;;;;;5073407;28;20243;-74
2023/07/09 02:28:09;;;;;;;16.27;11.45;;;18.00;99.90;;;;;;5074188;28;20581;-74
2023/07/09 02:30:37;;;;;;;16.55;11.60;;;17.90;99.90;;;;;;5077675;28;20276;-75
2023/07/09 02:33:04;;;;;;;15.35;11.25;;;17.90;99.90;;;;;;5078677;28;20285;-74
2023/07/09 02:35:31;;;;;;;13.88;10.85;;;17.90;99.90;;;;;;5078124;28;20247;-74
2023/07/09 02:37:57;;;;;;;12.77;10.45;;;17.80;99.90;;;;;;5078776;28;20259;-74
2023/07/09 02:40:24;;;;;;;12.15;10.27;;;17.70;99.90;;;;;;5074973;28;20196;-74
2023/07/09 02:42:50;;;;;;;13.32;9.85;;;17.60;99.90;;;;;;5073365;28;20197;-74
2023/07/09 02:45:17;;;;;;;12.45;10.90;;;17.60;99.90;;;;;;5073025;28;20243;-75
2023/07/09 02:47:45;;;;;;;12.70;10.52;;;17.50;99.90;;;;;;5073205;28;20243;-75
2023/07/09 02:50:12;;;;;;;12.15;9.88;;;17.40;99.90;;;;;;5072768;28;20241;-74
2023/07/09 02:52:41;;;;;;;17.05;10.15;;;17.40;99.90;;;;;;5072794;28;20201;-75
2023/07/09 02:55:09;;;;;;;11.55;10.00;;;17.40;99.90;;;;;;5072871;28;20735;-74
2023/07/09 02:57:36;;;;;;;14.02;10.13;;;17.50;99.90;;;;;;5072773;28;20603;-74
2023/07/09 03:00:05;;;;;;;13.48;10.00;;;17.50;99.90;;;;;;5072786;28;20242;-75
2023/07/09 03:02:31;;;;;;;12.73;10.20;;;17.50;99.90;;;;;;5072603;28;20197;-75
2023/07/09 03:05:00;;;;;;;13.23;9.68;;;17.50;99.90;;;;;;5072577;28;20692;-75
2023/07/09 03:07:26;;;;;;;11.00;9.88;;;17.50;99.90;;;;;;5072501;28;20561;-74
2023/07/09 03:09:53;;;;;;;12.85;8.98;;;17.50;99.90;;;;;;5072738;28;20201;-75
2023/07/09 03:12:19;;;;;;;10.73;9.02;;;17.40;99.90;;;;;;5072648;28;20201;-75
2023/07/09 03:14:48;;;;;;;12.15;7.75;;;17.30;99.90;;;;;;5072575;28;20204;-74
2023/07/09 03:17:15;;;;;;;9.05;7.75;;;17.30;99.90;;;;;;5072097;28;20255;-75
2023/07/09 03:19:42;;;;;;;9.27;7.32;;;17.20;99.90;;;;;;5072684;28;20201;-75
2023/07/09 03:22:10;;;;;;;11.15;7.65;;;17.00;99.90;;;;;;5072533;28;20742;-75
2023/07/09 03:24:36;;;;;;;8.02;7.22;;;16.90;99.90;;;;;;5072404;28;20224;-75
2023/07/09 03:27:03;;;;;;;12.30;7.78;;;16.90;99.90;;;;;;5072433;28;20266;-75
2023/07/09 03:29:30;;;;;;;10.40;7.53;;;16.90;99.90;;;;;;5072327;28;20201;-74
2023/07/09 03:31:56;;;;;;;9.20;7.38;;;17.00;99.90;;;;;;5072635;28;20197;-75
2023/07/09 03:34:23;;;;;;;9.25;7.50;;;17.00;99.90;;;;;;5072544;28;20197;-75
2023/07/09 03:36:50;;;;;;;10.65;7.53;;;17.10;99.90;;;;;;5072508;28;20192;-75
2023/07/09 03:39:18;;;;;;;11.50;7.75;;;17.10;99.90;;;;;;5072470;28;20197;-75
2023/07/09 03:41:44;;;;;;;9.43;7.47;;;17.10;99.90;;;;;;5072343;28;20197;-75
2023/07/09 03:44:11;;;;;;;9.95;7.13;;;17.00;99.90;;;;;;5072163;28;20225;-75
2023/07/09 03:46:38;;;;;;;7.75;6.68;;;16.90;99.90;;;;;;5072373;28;20229;-75
2023/07/09 03:49:04;;;;;;;12.65;7.55;;;16.90;99.90;;;;;;5072551;28;20193;-74
2023/07/09 03:51:31;;;;;;;9.98;6.97;;;16.90;99.90;;;;;;5072341;28;20251;-75
2023/07/09 03:53:58;;;;;;;8.88;7.18;;;16.90;99.90;;;;;;5072278;28;20197;-75
2023/07/09 03:56:25;;;;;;;9.07;6.63;;;16.90;99.90;;;;;;5071984;28;20229;-75
2023/07/09 03:58:52;;;;;;;10.95;6.82;;;17.10;99.90;;;;;;5072128;28;20201;-76
2023/07/09 04:01:19;;;;;;;10.85;7.00;;;17.20;99.90;;;;;;5072264;28;20205;-75
2023/07/09 04:03:45;;;;;;;7.72;6.85;;;17.20;99.90;;;;;;5072047;28;20558;-75
2023/07/09 04:06:12;;;;;;;8.05;6.65;;;17.20;99.90;;;;;;5072451;28;20201;-75
2023/07/09 04:08:39;;;;;;;9.15;7.13;;;17.30;99.90;;;;;;5072371;28;20197;-75
2023/07/09 04:11:06;;;;;;;8.52;6.68;;;17.30;99.90;;;;;;5072075;28;20569;-75
2023/07/09 04:13:34;;;;;;;7.75;6.95;;;17.50;99.90;;;;;;5072217;28;20270;-75
2023/07/09 04:16:00;;;;;;;11.35;6.57;;;17.40;99.90;;;;;;5072291;28;20546;-75
2023/07/09 04:18:27;;;;;;;10.63;7.13;;;17.40;99.90;;;;;;5072248;28;20245;-75
2023/07/09 04:20:53;;;;;;;8.63;6.72;;;17.50;99.90;;;;;;5072041;28;20259;-75
2023/07/09 04:23:21;;;;;;;9.25;6.90;;;17.50;99.90;;;;;;5071789;28;20201;-75
2023/07/09 04:25:48;;;;;;;8.20;6.93;;;17.60;99.90;;;;;;5071970;28;20197;-75
2023/07/09 04:28:14;;;;;;;10.27;6.80;;;17.60;99.90;;;;;;5072824;28;20270;-75
2023/07/09 04:30:48;;;;;;;8.93;7.43;;;17.60;99.90;;;;;;5075587;28;20250;-75
2023/07/09 04:33:17;;;;;;;13.30;7.63;;;17.70;99.90;;;;;;5075413;28;20236;-75
2023/07/09 04:35:44;;;;;;;10.68;7.32;;;17.70;99.90;;;;;;5075314;28;20239;-75
2023/07/09 04:38:11;;;;;;;10.10;7.63;;;17.80;99.90;;;;;;5075177;28;20235;-75
2023/07/09 04:40:37;;;;;;;9.20;8.20;;;18.00;99.90;;;;;;5075439;28;20201;-75
2023/07/09 04:43:04;;;;;;;11.75;8.00;;;18.10;99.90;;;;;;5075367;28;20197;-75
2023/07/09 04:45:30;;;;;;;10.07;7.40;;;18.20;99.90;;;;;;5074951;28;20274;-75
2023/07/09 04:47:58;;;;;;;9.50;8.10;;;18.20;99.90;;;;;;5075112;28;20649;-75
2023/07/09 04:50:25;;;;;;;9.48;7.60;;;18.30;99.90;;;;;;5074838;28;20246;-76
2023/07/09 04:52:52;;;;;;;10.85;8.52;;;18.30;99.90;;;;;;5074929;28;20255;-74
2023/07/09 04:55:19;;;;;;;10.52;7.78;;;18.30;99.90;;;;;;5075027;28;20236;-75
2023/07/09 04:57:46;;;;;;;9.65;7.70;;;18.50;99.90;;;;;;5074964;28;20193;-75
2023/07/09 05:00:13;;;;;;;9.15;8.15;;;18.60;99.90;;;;;;5074612;28;20657;-75
2023/07/09 05:02:40;;;;;;;11.15;8.52;;;18.60;99.90;;;;;;5074860;28;20201;-75
2023/07/09 05:05:09;;;;;;;8.95;8.05;;;18.80;99.90;;;;;;5074636;28;20221;-75
2023/07/09 05:07:36;;;;;;;12.35;8.10;;;18.80;99.90;;;;;;5074632;28;20207;-74
2023/07/09 05:10:03;;;;;;;12.05;8.57;;;18.90;99.90;;;;;;5074629;28;20197;-75
2023/07/09 05:12:29;;;;;;;10.60;8.23;;;19.00;99.90;;;;;;5074603;28;20649;-75
2023/07/09 05:14:57;;;;;;;10.95;7.47;;;19.10;99.90;;;;;;5074750;28;20691;-76
2023/07/09 05:17:24;;;;;;;8.60;7.65;;;19.20;99.90;;;;;;5074411;28;20204;-75
2023/07/09 05:19:51;;;;;;;9.73;7.90;;;19.30;99.90;;;;;;5074523;28;20204;-75
2023/07/09 05:22:19;;;;;;;9.68;7.72;;;19.40;99.90;;;;;;5074382;28;20197;-75
2023/07/09 05:24:45;;;;;;;11.57;9.30;;;19.50;99.90;;;;;;5074375;28;20228;-75
2023/07/09 05:27:12;;;;;;;13.35;7.90;;;19.60;99.90;;;;;;5074395;28;20193;-75
2023/07/09 05:29:39;;;;;;;11.02;9.05;;;19.80;99.90;;;;;;5074382;28;20201;-75
2023/07/09 05:32:06;;;;;;;15.43;9.35;;;19.90;99.90;;;;;;5074258;28;20205;-75
2023/07/09 05:34:33;;;;;;;9.50;8.32;;;20.00;99.90;;;;;;5074128;28;20204;-75
2023/07/09 05:36:59;;;;;;;10.13;8.55;;;20.10;99.90;;;;;;5074343;28;20201;-75
2023/07/09 05:39:27;;;;;;;10.13;8.70;;;20.20;99.90;;;;;;5074056;28;20231;-75
2023/07/09 05:41:54;;;;;;;10.43;8.38;;;20.30;99.90;;;;;;5074151;28;20603;-75
2023/07/09 05:44:20;;;;;;;10.50;8.20;;;20.40;99.90;;;;;;5074062;28;20221;-75
2023/07/09 05:46:47;;;;;;;10.15;8.27;;;20.50;99.90;;;;;;5081131;28;20200;-75
2023/07/09 05:49:13;;;;;;;9.55;7.65;;;20.70;99.90;;;;;;5074074;28;20722;-74
2023/07/09 05:51:40;;;;;;;10.68;7.50;;;20.80;99.90;;;;;;5073919;28;20205;-75
2023/07/09 05:54:07;;;;;;;8.13;7.25;;;20.90;99.90;;;;;;5073762;28;20656;-74
2023/07/09 05:56:35;;;;;;;8.63;6.93;;;21.00;99.90;;;;;;5073557;28;20592;-75
2023/07/09 05:59:02;;;;;;;13.18;7.65;;;21.20;99.90;;;;;;5073712;28;20196;-74
2023/07/09 06:01:28;;;;;;;9.32;6.63;;;21.30;99.90;;;;;;5073506;28;20242;-75
2023/07/09 06:03:56;;;;;;;8.52;7.10;;;21.40;99.90;;;;;;5073398;28;20349;-74
2023/07/09 06:06:23;;;;;;;8.80;6.78;;;21.60;99.90;;;;;;5073438;28;20197;-75
2023/07/09 06:08:50;;;;;;;8.45;6.90;;;21.70;99.90;;;;;;5073706;28;20283;-75
2023/07/09 06:11:18;;;;;;;8.40;7.22;;;21.80;99.90;;;;;;5073342;28;20207;-76
2023/07/09 06:13:47;;;;;;;9.90;7.10;;;21.90;99.90;;;;;;5073435;28;20229;-76
2023/07/09 06:16:14;;;;;;;9.82;7.00;;;22.00;99.90;;;;;;5073324;28;20200;-75
2023/07/09 06:18:41;;;;;;;8.30;6.28;;;22.20;99.90;;;;;;5072861;28;20549;-75
2023/07/09 06:21:10;;;;;;;8.85;6.63;;;22.30;99.90;;;;;;5073332;28;20533;-75
2023/07/09 06:23:36;;;;;;;6.72;6.00;;;22.50;99.90;;;;;;5073392;28;20273;-75
2023/07/09 06:26:03;;;;;;;8.35;6.47;;;22.60;99.90;;;;;;5073165;28;20421;-75
2023/07/09 06:28:29;;;;;;;6.88;5.90;;;22.70;99.90;;;;;;5073074;28;20657;-74
2023/07/09 06:30:58;;;;;;;7.25;5.70;;;22.90;99.90;;;;;;5073226;28;20201;-75
2023/07/09 06:33:26;;;;;;;8.07;6.13;;;23.00;99.90;;;;;;5073193;28;20197;-76
2023/07/09 06:35:55;;;;;;;6.60;5.88;;;23.10;99.90;;;;;;5073230;28;20205;-77
2023/07/09 06:38:23;;;;;;;8.90;6.32;;;23.20;99.90;;;;;;5072998;28;20197;-76
2023/07/09 06:40:50;;;;;;;9.13;5.63;;;23.40;99.90;;;;;;5072997;28;20599;-76
2023/07/09 06:43:17;;;;;;;7.32;6.13;;;23.60;99.90;;;;;;5072769;28;20250;-76
2023/07/09 06:45:51;;;;;;;9.45;5.53;;;23.70;99.90;;;;;;5072803;28;20773;-77
2023/07/09 06:48:20;;;;;;;7.13;5.78;;;23.90;99.90;;;;;;5072960;28;20197;-75
2023/07/09 06:50:46;;;;;;;8.32;5.93;;;24.00;99.90;;;;;;5072299;28;20303;-75
2023/07/09 06:53:13;;;;;;;8.18;6.40;;;24.20;99.90;;;;;;5072771;28;20286;-76
2023/07/09 06:55:40;;;;;;;6.28;5.63;;;24.30;99.90;;;;;;5072620;28;20229;-75
2023/07/09 06:58:07;;;;;;;6.65;5.50;;;24.40;99.90;;;;;;5072922;28;20205;-76
2023/07/09 07:00:35;;;;;;;7.55;5.55;;;24.60;99.90;;;;;;5073118;28;20522;-76
2023/07/09 07:03:01;;;;;;;6.07;5.47;;;24.70;99.90;;;;;;5072882;28;20214;-76
2023/07/09 07:05:31;;;;;;;6.43;5.68;;;24.70;99.90;;;;;;5072650;28;20225;-76
2023/07/09 07:07:57;;;;;;;7.28;5.53;;;24.90;99.90;;;;;;5072653;28;20208;-76
2023/07/09 07:10:26;;;;;;;6.63;5.85;;;25.00;99.90;;;;;;5072559;28;20593;-77
2023/07/09 07:12:53;;;;;;;7.28;5.90;;;25.10;99.90;;;;;;5072571;28;20193;-77
2023/07/09 07:15:20;;;;;;;7.53;5.22;;;25.30;99.90;;;;;;5072535;28;20711;-77
2023/07/09 07:17:46;;;;;;;7.18;4.97;;;25.50;99.90;;;;;;5072478;28;20201;-78
2023/07/09 07:20:14;;;;;;;7.80;5.47;;;25.60;99.90;;;;;;5072361;28;20270;-76
2023/07/09 07:22:42;;;;;;;8.95;5.22;;;25.50;99.90;;;;;;5072436;28;20197;-76
2023/07/09 07:25:10;;;;;;;7.93;5.30;;;25.80;99.90;;;;;;5072583;28;20758;-79
2023/07/09 07:27:37;;;;;;;7.47;5.22;;;25.90;99.90;;;;;;5072551;28;20193;-75
2023/07/09 07:30:04;;;;;;;6.00;5.20;;;26.10;99.90;;;;;;5072570;28;20565;-75
2023/07/09 07:32:31;;;;;;;5.22;4.72;;;26.20;99.90;;;;;;5072418;28;20197;-75
2023/07/09 07:34:58;;;;;;;6.25;5.00;;;26.30;99.90;;;;;;5072483;28;20196;-75
2023/07/09 07:37:24;;;;;;;7.63;4.93;;;26.30;99.90;;;;;;5072232;28;20246;-75
2023/07/09 07:39:52;;;;;;;6.47;5.03;;;26.60;99.90;;;;;;5072511;28;20262;-76
2023/07/09 07:42:19;;;;;;;6.65;4.85;;;26.80;99.40;;;;;;5072090;28;20714;-75
2023/07/09 07:44:46;;;;;;;5.55;4.50;;;26.90;98.70;;;;;;5072490;28;20282;-75
2023/07/09 07:47:13;;;;;;;7.75;4.50;;;27.10;97.90;;;;;;5072344;28;20197;-76
2023/07/09 07:49:39;;;;;;;5.43;4.00;;;27.40;96.50;;;;;;5072311;28;20255;-73
2023/07/09 07:52:07;;;;;;;5.57;4.50;;;27.60;95.60;;;;;;5072297;28;20564;-72
2023/07/09 07:54:35;;;;;;;6.18;4.00;;;27.90;93.90;;;;;;5072194;28;20197;-72
2023/07/09 07:57:03;;;;;;;6.53;3.95;;;28.00;92.60;;;;;;5071863;28;20217;-71
2023/07/09 07:59:32;;;;;;;6.75;4.72;;;28.20;91.50;;;;;;5072142;28;20201;-72
2023/07/09 08:01:59;;;;;;;5.32;4.22;;;28.40;90.70;;;;;;5072420;28;20244;-71
2023/07/09 08:04:25;;;;;;;4.75;3.78;;;28.60;89.40;;;;;;5066502;28;20197;-72
2023/07/09 08:06:53;;;;;;;4.97;3.70;;;28.80;87.00;;;;;;5075077;28;20661;-72
2023/07/09 08:09:19;;;;;;;5.30;4.13;;;29.10;87.10;;;;;;5075476;28;20207;-73
2023/07/09 08:11:46;;;;;;;4.80;4.05;;;29.20;84.60;;;;;;5075645;28;20197;-72
2023/07/09 08:14:14;;;;;;;8.00;4.43;;;29.30;82.50;;;;;;5074620;28;20251;-71
2023/07/09 08:16:41;;;;;;;5.10;3.92;;;29.70;81.80;;;;;;5075132;28;20250;-71
2023/07/09 08:19:07;;;;;;;6.30;4.40;;;29.70;78.00;;;;;;5075395;28;20679;-71
2023/07/09 08:21:34;;;;;;;8.48;4.22;;;29.80;76.70;;;;;;5075618;28;20193;-71
2023/07/09 08:24:01;;;;;;;5.22;3.92;;;29.90;76.70;;;;;;5075387;28;20189;-71
2023/07/09 08:26:27;;;;;;;5.97;4.57;;;30.20;77.50;;;;;;5075332;28;20228;-71
2023/07/09 08:28:54;;;;;;;4.65;4.22;;;30.50;76.90;;;;;;5074953;28;20262;-71
2023/07/09 08:31:22;;;;;;;6.00;4.78;;;30.60;74.50;;;;;;5075060;28;20197;-71
2023/07/09 08:33:49;;;;;;;4.97;4.32;;;30.70;72.90;;;;;;5074985;28;20665;-71
2023/07/09 08:36:16;;;;;;;6.38;4.78;;;30.90;73.40;;;;;;5075350;28;20254;-71
2023/07/09 08:38:42;;;;;;;6.68;4.10;;;31.20;70.70;;;;;;5075073;28;20255;-70
2023/07/09 08:41:16;;;;;;;4.82;4.38;;;31.10;68.20;;;;;;5075177;28;20193;-71
2023/07/09 08:43:52;;;;;;;6.43;4.32;;;31.10;66.40;;;;;;5074972;28;20262;-68
2023/07/09 08:46:27;;;;;;;6.80;4.50;;;31.10;64.60;;;;;;5074764;28;20757;-70
2023/07/09 08:48:56;;;;;;;9.38;4.55;;;31.00;63.00;;;;;;5074808;28;20230;-70
2023/07/09 08:51:34;;;;;;;7.68;4.82;;;31.30;63.20;;;;;;5074683;28;20706;-70
2023/07/09 08:54:01;;;;;;;7.15;4.72;;;31.50;59.90;;;;;;5074245;28;20193;-72
2023/07/09 08:56:32;;;;;;;5.32;4.20;;;31.90;60.50;;;;;;5065159;28;20328;-71
2023/07/09 08:59:01;;;;;;;6.25;4.50;;;31.90;58.10;;;;;;5095393;28;20196;-71
2023/07/09 09:01:36;;;;;;;6.75;4.20;;;31.90;58.60;;;;;;5095300;28;20261;-71
2023/07/09 09:04:06;;;;;;;6.03;4.43;;;31.90;56.20;;;;;;5095200;28;20200;-71
2023/07/09 09:06:35;;;;;;;4.70;4.30;;;31.60;55.60;;;;;;5094828;28;20727;-71
2023/07/09 09:09:09;;;;;;;5.05;4.38;;;31.80;55.20;;;;;;5094856;28;20287;-72
2023/07/09 09:11:44;;;;;;;7.88;4.47;;;32.00;54.20;;;;;;5094891;28;20199;-71
2023/07/09 09:14:24;;;;;;;5.18;4.07;;;32.40;52.70;;;;;;5094082;28;20712;-70
2023/07/09 09:16:53;;;;;;;6.18;4.20;;;32.70;52.40;;;;;;5094759;28;20273;-71
2023/07/09 09:19:24;;;;;;;6.82;4.30;;;33.20;51.60;;;;;;5094882;28;20648;-70
2023/07/09 09:21:58;;;;;;;6.85;4.40;;;33.80;49.30;;;;;;5094352;28;20253;-71
2023/07/09 09:24:28;;;;;;;6.85;4.03;;;34.10;48.10;;;;;;5074740;28;20201;-70
2023/07/09 09:26:58;;;;;;;6.28;4.13;;;33.80;45.90;;;;;;5068457;28;20225;-70
2023/07/09 09:29:25;;;;;;;5.95;4.20;;;33.50;45.90;;;;;;5054392;28;20197;-71
2023/07/09 09:31:57;;;;;;;6.43;4.07;;;33.90;44.90;;;;;;5054281;28;20632;-70
2023/07/09 09:34:26;;;;;;;4.78;4.28;;;34.00;44.60;;;;;;5054444;28;20255;-70
2023/07/09 09:36:54;;;;;;;6.90;3.97;;;33.80;43.60;;;;;;5054483;28;20535;-71
2023/07/09 09:39:21;;;;;;;4.22;3.70;;;34.40;43.50;;;;;;5054275;28;20205;-71
2023/07/09 09:41:48;;;;;;;7.03;4.10;;;33.50;41.60;;;;;;5054168;28;20209;-71
2023/07/09 09:44:22;;;;;;;5.78;3.70;;;33.50;41.70;;;;;;5053992;28;20275;-70
2023/07/09 09:46:50;;;;;;;6.35;3.63;;;33.70;41.50;;;;;;5053915;28;20229;-70
2023/07/09 09:49:18;;;;;;;5.10;3.95;;;34.20;40.40;;;;;;5054061;28;20230;-71
2023/07/09 09:51:46;;;;;;;6.90;4.63;;;34.20;39.50;;;;;;5054089;28;20205;-70
2023/07/09 09:54:19;;;;;;;5.32;3.58;;;34.60;39.20;;;;;;5054196;28;20201;-71
2023/07/09 09:56:45;;;;;;;6.47;4.15;;;35.10;38.40;;;;;;5053733;28;20633;-71
2023/07/09 09:59:20;;;;;;;5.05;4.45;;;34.00;38.50;;;;;;5053826;28;20210;-71
2023/07/09 10:01:47;;;;;;;5.78;4.00;;;33.40;39.00;;;;;;5054029;28;20216;-70
2023/07/09 10:04:19;;;;;;;6.70;4.35;;;32.60;39.40;;;;;;5053851;28;20293;-71
2023/07/09 10:06:50;;;;;;;4.93;4.15;;;32.40;39.30;;;;;;5053424;28;20259;-69
2023/07/09 10:09:24;;;;;;;7.28;4.30;;;32.10;38.70;;;;;;5053819;28;20198;-69
2023/07/09 10:11:58;;;;;;;6.10;4.55;;;32.20;39.20;;;;;;5053761;28;20254;-69
2023/07/09 10:14:36;;;;;;;6.85;4.15;;;33.40;38.50;;;;;;5053703;28;20201;-69
2023/07/09 10:17:15;;;;;;;8.23;4.80;;;33.50;36.90;;;;;;5053707;28;20201;-69
2023/07/09 10:19:54;;;;;;;4.68;4.00;;;33.80;36.30;;;;;;5053465;28;20251;-70
2023/07/09 10:22:31;;;;;;;4.10;3.70;;;34.80;35.60;;;;;;5053589;28;20246;-71
2023/07/09 10:25:06;;;;;;;6.53;4.28;;;35.90;34.70;;;;;;5053288;28;20193;-70
2023/07/09 10:27:42;;;;;;;5.30;4.10;;;36.10;33.50;;;;;;5052671;28;20209;-69
2023/07/09 10:30:27;;;;;;;6.68;4.50;;;36.20;33.50;;;;;;5053260;28;20247;-69
2023/07/09 10:33:06;;;;;;;6.25;3.88;;;37.40;32.40;;;;;;5053464;28;20197;-69
2023/07/09 10:35:39;;;;;;;4.53;3.60;;;37.10;31.10;;;;;;5053594;28;20208;-69
2023/07/09 10:38:33;;;;;;;5.32;4.22;;;37.20;30.80;;;;;;5053132;28;20270;-69
2023/07/09 10:41:03;;;;;;;5.15;4.25;;;37.80;29.90;;;;;;5053043;28;20201;-69
2023/07/09 10:43:36;;;;;;;5.65;3.85;;;38.10;28.90;;;;;;5053009;28;20205;-69
2023/07/09 10:46:10;;;;;;;6.97;4.30;;;38.00;28.60;;;;;;5053090;28;20225;-69
2023/07/09 10:48:39;;;;;;;6.70;4.03;;;39.20;28.40;;;;;;5052997;28;20534;-70
2023/07/09 10:51:17;;;;;;;6.35;4.45;;;39.70;27.40;;;;;;5052898;28;20282;-70
2023/07/09 10:53:46;;;;;;;6.22;4.35;;;39.60;26.30;;;;;;5053148;28;20197;-70
2023/07/09 10:56:16;;;;;;;5.88;4.20;;;39.20;26.80;;;;;;5052887;28;20283;-70
2023/07/09 10:58:50;;;;;;;6.35;3.97;;;39.20;26.40;;;;;;5052965;28;20203;-70
2023/07/09 11:01:22;;;;;;;6.25;4.18;;;40.10;26.30;;;;;;5052799;28;20250;-70
2023/07/09 11:03:51;;;;;;;7.53;4.20;;;39.70;25.30;;;;;;5052596;28;20197;-70
2023/07/09 11:06:26;;;;;;;7.18;4.18;;;38.30;26.10;;;;;;5052538;28;20623;-70
2023/07/09 11:08:56;;;;;;;4.90;4.40;;;37.20;26.50;;;;;;5052874;28;20254;-69
2023/07/09 11:11:30;;;;;;;7.93;4.38;;;35.90;27.10;;;;;;5052783;28;20270;-69
2023/07/09 11:14:05;;;;;;;6.00;4.20;;;35.30;28.00;;;;;;5052646;28;20197;-70
2023/07/09 11:16:33;;;;;;;5.40;4.55;;;35.00;28.30;;;;;;5052687;28;20249;-69
2023/07/09 11:19:02;;;;;;;4.57;4.13;;;36.20;27.70;;;;;;5052806;28;20197;-70
2023/07/09 11:21:30;;;;;;;5.32;4.57;;;38.40;26.50;;;;;;5052685;28;20197;-70
2023/07/09 11:23:59;;;;;;;4.55;4.15;;;39.70;25.60;;;;;;5052442;28;20599;-70
2023/07/09 11:26:28;;;;;;;5.88;4.00;;;40.70;24.00;;;;;;5052386;28;20225;-70
2023/07/09 11:29:09;;;;;;;6.30;3.75;;;40.60;23.60;;;;;;5052603;28;20604;-70
2023/07/09 11:31:38;;;;;;;5.03;4.10;;;40.00;23.50;;;;;;5052642;28;20327;-70
2023/07/09 11:34:10;;;;;;;4.95;4.15;;;40.80;23.70;;;;;;5052352;28;20262;-71
2023/07/09 11:36:49;;;;;;;5.35;4.10;;;41.70;22.80;;;;;;5052531;28;20193;-71
2023/07/09 11:39:21;;;;;;;5.88;4.35;;;42.10;21.90;;;;;;5056754;28;20185;-71
2023/07/09 11:41:48;;;;;;;5.05;3.92;;;40.40;21.90;;;;;;5056465;28;20197;-71
2023/07/09 11:44:19;;;;;;;4.80;4.22;;;40.60;22.20;;;;;;5056631;28;20201;-71
2023/07/09 11:46:55;;;;;;;6.50;3.78;;;41.90;21.80;;;;;;5056382;28;20197;-71
2023/07/09 11:49:26;;;;;;;4.95;4.05;;;43.00;20.60;;;;;;5056385;28;20196;-71
2023/07/09 11:51:59;;;;;;;4.82;4.25;;;41.10;20.50;;;;;;5056542;28;20181;-71
2023/07/09 11:54:26;;;;;;;5.72;4.38;;;39.70;21.20;;;;;;5056424;28;20201;-70
2023/07/09 11:56:57;;;;;;;5.88;4.20;;;38.40;22.20;;;;;;5055969;28;20284;-70
2023/07/09 11:59:24;;;;;;;6.35;4.80;;;38.40;22.50;;;;;;5056031;28;20627;-70
2023/07/09 12:01:54;;;;;;;7.03;4.20;;;38.70;22.20;;;;;;5056031;28;20246;-70
2023/07/09 12:04:22;;;;;;;7.53;4.25;;;39.10;21.30;;;;;;5055835;28;20595;-70
2023/07/09 12:06:49;;;;;;;5.85;4.20;;;40.10;21.40;;;;;;5056160;28;20243;-70
2023/07/09 12:09:20;;;;;;;5.30;4.50;;;41.20;21.20;;;;;;5056154;28;20607;-70
2023/07/09 12:11:48;;;;;;;5.45;4.57;;;41.20;20.20;;;;;;5055983;28;20243;-70
2023/07/09 12:14:17;;;;;;;6.60;4.80;;;40.40;20.70;;;;;;5055990;28;20259;-70
2023/07/09 12:16:46;;;;;;;6.30;4.88;;;40.90;20.50;;;;;;5055720;28;20217;-70
2023/07/09 12:19:14;;;;;;;5.55;3.97;;;40.00;20.90;;;;;;5055973;28;20193;-70
2023/07/09 12:21:45;;;;;;;4.35;3.95;;;41.60;20.00;;;;;;5055893;28;20201;-70
2023/07/09 12:24:22;;;;;;;5.18;4.65;;;42.60;19.50;;;;;;5055719;28;20228;-70
2023/07/09 12:26:50;;;;;;;5.80;4.18;;;42.80;19.30;;;;;;5055573;28;20283;-71
2023/07/09 12:29:16;;;;;;;7.25;4.00;;;41.70;19.10;;;;;;5055664;28;20211;-70
2023/07/09 12:31:43;;;;;;;6.28;4.75;;;40.00;19.60;;;;;;5055890;28;20227;-70
2023/07/09 12:34:13;;;;;;;7.47;4.30;;;40.90;19.80;;;;;;5055551;28;20201;-70
2023/07/09 12:36:42;;;;;;;7.05;4.47;;;41.50;19.10;;;;;;5055543;28;20217;-70
2023/07/09 12:39:12;;;;;;;9.70;4.20;;;41.50;18.90;;;;;;5055493;28;20255;-71
2023/07/09 12:41:42;;;;;;;5.20;3.95;;;43.30;18.80;;;;;;5055411;28;20193;-70
2023/07/09 12:44:17;;;;;;;5.90;4.35;;;43.60;17.60;;;;;;5055534;28;20258;-71
2023/07/09 12:46:45;;;;;;;6.40;4.57;;;42.30;17.70;;;;;;5055450;28;20201;-70
2023/07/09 12:49:21;;;;;;;4.45;4.03;;;41.10;18.20;;;;;;5054226;28;20201;-72
2023/07/09 12:51:48;;;;;;;5.47;4.20;;;41.40;18.20;;;;;;5055181;28;20197;-71